createdAt,value
2019-03-10T00:00:23.598Z,6.49
2019-03-10T00:02:53.195Z,6.51
2019-03-10T00:05:22.727Z,6.28
2019-03-10T00:07:52.950Z,6.52
2019-03-10T00:10:22.604Z,6.68
2019-03-10T00:12:52.345Z,6.70
2019-03-10T00:15:22.936Z,6.71
2019-03-10T00:17:52.926Z,6.73
2019-03-10T00:20:23.180Z,6.76
2019-03-10T00:22:52.590Z,6.67
2019-03-10T00:25:21.705Z,6.83
2019-03-10T00:27:51.808Z,6.84
2019-03-10T00:30:21.853Z,6.91
2019-03-10T00:32:51.470Z,6.94
2019-03-10T00:35:21.287Z,6.98
2019-03-10T00:37:51.241Z,7.01
2019-03-10T00:40:33.127Z,7.02
2019-03-10T00:46:19.802Z,7.11
2019-03-10T00:51:12.878Z,7.22
2019-03-10T00:53:42.495Z,7.23
2019-03-10T00:56:12.518Z,7.24
2019-03-10T00:58:42.257Z,7.26
2019-03-10T01:01:11.822Z,7.13
2019-03-10T01:03:42.025Z,7.30
2019-03-10T01:06:12.048Z,7.31
2019-03-10T01:08:42.063Z,7.19
2019-03-10T01:11:12.009Z,7.33
2019-03-10T01:13:43.316Z,7.34
2019-03-10T01:16:13.385Z,7.38
2019-03-10T01:18:44.014Z,7.38
2019-03-10T01:21:13.595Z,7.40
2019-03-10T01:23:43.587Z,7.25
2019-03-10T01:26:13.478Z,7.38
2019-03-10T01:28:43.473Z,7.38
2019-03-10T01:31:19.326Z,7.38
2019-03-10T01:36:10.694Z,7.38
2019-03-10T01:38:40.686Z,7.35
2019-03-10T01:41:09.827Z,7.26
2019-03-10T01:43:39.854Z,7.23
2019-03-10T01:46:09.994Z,7.36
2019-03-10T01:48:39.890Z,7.34
2019-03-10T01:51:09.591Z,7.33
2019-03-10T01:53:39.466Z,7.33
2019-03-10T01:56:09.450Z,7.32
2019-03-10T01:58:39.182Z,7.33
2019-03-10T02:01:08.882Z,7.34
2019-03-10T02:03:39.014Z,7.37
2019-03-10T02:06:08.562Z,7.38
2019-03-10T02:08:38.397Z,7.42
2019-03-10T02:11:08.061Z,7.40
2019-03-10T02:13:39.081Z,7.39
2019-03-10T02:16:08.963Z,6.87
2019-03-10T02:18:38.859Z,7.39
2019-03-10T02:21:08.591Z,7.35
2019-03-10T02:23:38.602Z,7.38
2019-03-10T02:26:08.600Z,7.28
2019-03-10T02:28:38.373Z,7.39
2019-03-10T02:31:08.506Z,7.03
2019-03-10T02:33:38.199Z,7.39
2019-03-10T02:38:31.744Z,7.37
2019-03-10T02:41:01.483Z,7.36
2019-03-10T02:43:31.469Z,7.23
2019-03-10T02:46:02.168Z,6.86
2019-03-10T02:48:33.262Z,7.34
2019-03-10T02:51:03.941Z,7.33
2019-03-10T02:53:34.066Z,7.34
2019-03-10T02:56:03.559Z,7.20
2019-03-10T02:58:33.513Z,7.13
2019-03-10T03:01:03.657Z,7.40
2019-03-10T03:03:34.475Z,7.41
2019-03-10T03:06:04.740Z,7.42
2019-03-10T03:08:34.790Z,7.44
2019-03-10T03:11:04.869Z,7.46
2019-03-10T03:13:35.177Z,7.33
2019-03-10T03:16:05.016Z,7.45
2019-03-10T03:18:35.169Z,7.22
2019-03-10T03:21:05.549Z,7.44
2019-03-10T03:23:35.038Z,7.17
2019-03-10T03:26:04.296Z,7.07
2019-03-10T03:28:34.018Z,7.20
2019-03-10T03:31:04.130Z,6.80
2019-03-10T03:33:34.257Z,7.43
2019-03-10T03:36:08.378Z,7.44
2019-03-10T03:38:41.810Z,7.20
2019-03-10T03:41:14.846Z,7.45
2019-03-10T03:43:44.619Z,7.47
2019-03-10T03:46:14.273Z,7.36
2019-03-10T03:48:44.294Z,7.48
2019-03-10T03:51:13.854Z,7.51
2019-03-10T03:53:43.153Z,7.52
2019-03-10T03:56:12.788Z,7.18
2019-03-10T03:58:43.414Z,7.57
2019-03-10T04:01:18.906Z,7.47
2019-03-10T04:03:49.151Z,7.60
2019-03-10T04:06:18.803Z,7.61
2019-03-10T04:08:48.251Z,7.61
2019-03-10T04:11:19.260Z,7.61
2019-03-10T04:13:48.937Z,7.61
2019-03-10T04:16:18.671Z,7.48
2019-03-10T04:18:49.832Z,7.35
2019-03-10T04:21:19.218Z,7.59
2019-03-10T04:23:49.742Z,7.59
2019-03-10T04:26:19.380Z,7.56
2019-03-10T04:28:49.103Z,7.57
2019-03-10T04:31:18.382Z,7.36
2019-03-10T04:33:48.487Z,7.57
2019-03-10T04:36:18.114Z,7.57
2019-03-10T04:38:48.958Z,7.57
2019-03-10T04:41:18.409Z,7.57
2019-03-10T04:43:48.183Z,7.53
2019-03-10T04:46:17.686Z,7.55
2019-03-10T04:48:47.908Z,7.43
2019-03-10T04:51:17.423Z,7.51
2019-03-10T04:53:47.289Z,7.50
2019-03-10T04:57:21.726Z,7.50
2019-03-10T04:59:51.329Z,7.46
2019-03-10T05:02:21.271Z,7.46
2019-03-10T05:04:50.781Z,7.46
2019-03-10T05:07:20.425Z,7.46
2019-03-10T05:09:49.608Z,7.45
2019-03-10T05:12:19.194Z,7.45
2019-03-10T05:14:49.360Z,6.52
2019-03-10T05:17:18.494Z,7.22
2019-03-10T05:19:48.271Z,7.35
2019-03-10T05:22:18.894Z,7.36
2019-03-10T05:24:48.706Z,7.51
2019-03-10T05:27:18.155Z,7.42
2019-03-10T05:29:47.961Z,7.31
2019-03-10T05:32:17.199Z,7.31
2019-03-10T05:34:47.050Z,7.58
2019-03-10T05:37:17.195Z,7.59
2019-03-10T05:39:46.843Z,7.57
2019-03-10T05:42:16.826Z,7.60
2019-03-10T05:44:46.925Z,7.36
2019-03-10T05:47:17.556Z,7.60
2019-03-10T05:49:47.267Z,7.60
2019-03-10T05:52:17.258Z,7.35
2019-03-10T05:54:47.037Z,7.58
2019-03-10T05:57:16.277Z,7.57
2019-03-10T05:59:46.453Z,7.56
2019-03-10T06:02:16.480Z,7.54
2019-03-10T06:04:46.445Z,7.52
2019-03-10T06:07:15.804Z,7.51
2019-03-10T06:09:45.627Z,7.50
2019-03-10T06:12:15.531Z,7.49
2019-03-10T06:14:45.713Z,7.51
2019-03-10T06:17:15.381Z,7.51
2019-03-10T06:19:45.234Z,7.51
2019-03-10T06:22:14.908Z,7.50
2019-03-10T06:24:44.971Z,7.50
2019-03-10T06:27:14.688Z,7.50
2019-03-10T06:29:44.778Z,7.50
2019-03-10T06:32:14.437Z,7.50
2019-03-10T06:34:44.388Z,7.49
2019-03-10T06:37:14.314Z,7.49
2019-03-10T06:39:44.313Z,7.49
2019-03-10T06:42:13.957Z,7.49
2019-03-10T06:44:43.626Z,7.49
2019-03-10T06:47:13.754Z,7.36
2019-03-10T06:49:43.255Z,7.46
2019-03-10T06:52:12.573Z,7.44
2019-03-10T06:54:42.060Z,7.43
2019-03-10T06:57:12.319Z,7.44
2019-03-10T06:59:42.078Z,7.44
2019-03-10T07:02:12.177Z,7.19
2019-03-10T07:04:42.246Z,7.43
2019-03-10T07:07:12.102Z,7.11
2019-03-10T07:09:42.098Z,7.43
2019-03-10T07:12:11.568Z,7.43
2019-03-10T07:14:41.247Z,7.43
2019-03-10T07:17:10.757Z,7.21
2019-03-10T07:19:41.510Z,7.42
2019-03-10T07:22:10.978Z,7.27
2019-03-10T07:24:40.846Z,7.40
2019-03-10T07:27:11.087Z,7.36
2019-03-10T07:29:44.834Z,7.29
2019-03-10T07:32:19.285Z,7.05
2019-03-10T07:36:56.171Z,7.30
2019-03-10T07:39:29.708Z,6.82
2019-03-10T07:42:04.425Z,7.28
2019-03-10T07:44:40.218Z,7.27
2019-03-10T07:49:18.053Z,7.03
2019-03-10T07:51:54.498Z,7.01
2019-03-10T07:55:32.011Z,7.10
2019-03-10T07:58:20.870Z,7.11
2019-03-10T08:00:57.274Z,7.10
2019-03-10T08:03:31.707Z,7.12
2019-03-10T08:06:05.821Z,7.14
2019-03-10T08:08:47.706Z,6.92
2019-03-10T08:11:31.121Z,7.20
2019-03-10T08:14:05.278Z,7.13
2019-03-10T08:16:44.142Z,7.28
2019-03-10T08:19:36.134Z,6.90
2019-03-10T08:22:43.702Z,7.25
2019-03-10T08:26:20.786Z,7.28
2019-03-10T08:28:56.717Z,7.30
2019-03-10T08:31:30.261Z,7.09
2019-03-10T08:34:05.153Z,7.37
2019-03-10T08:36:40.474Z,7.32
2019-03-10T08:39:24.772Z,7.42
2019-03-10T08:42:20.183Z,7.48
2019-03-10T08:44:56.042Z,7.52
2019-03-10T08:47:36.466Z,7.59
2019-03-10T08:50:10.910Z,7.64
2019-03-10T08:52:47.864Z,7.55
2019-03-10T08:55:26.209Z,7.70
2019-03-10T08:58:03.137Z,7.18
2019-03-10T09:00:46.758Z,7.32
2019-03-10T09:03:35.288Z,7.83
2019-03-10T09:06:15.152Z,7.83
2019-03-10T09:08:50.542Z,7.76
2019-03-10T09:11:30.440Z,7.93
2019-03-10T09:14:13.073Z,7.97
2019-03-10T09:16:46.919Z,7.99
2019-03-10T09:19:23.519Z,8.01
2019-03-10T09:22:00.411Z,7.22
2019-03-10T09:24:37.731Z,7.78
2019-03-10T09:27:18.914Z,7.81
2019-03-10T09:30:08.003Z,8.03
2019-03-10T09:32:43.259Z,7.98
2019-03-10T09:35:17.722Z,7.95
2019-03-10T09:37:55.503Z,7.77
2019-03-10T09:40:30.140Z,7.77
2019-03-10T09:43:05.053Z,7.94
2019-03-10T09:45:38.897Z,7.97
2019-03-10T09:49:16.818Z,7.54
2019-03-10T09:51:56.194Z,7.49
2019-03-10T09:54:41.949Z,7.95
2019-03-10T09:58:21.205Z,7.94
2019-03-10T10:00:56.849Z,7.98
2019-03-10T10:03:34.059Z,8.00
2019-03-10T10:06:21.823Z,7.14
2019-03-10T10:09:03.894Z,7.46
2019-03-10T10:11:40.971Z,8.07
2019-03-10T10:14:19.481Z,8.16
2019-03-10T10:16:56.415Z,8.01
2019-03-10T10:20:36.882Z,7.41
2019-03-10T10:23:12.727Z,8.35
2019-03-10T10:25:47.107Z,8.47
2019-03-10T10:28:24.661Z,8.59
2019-03-10T10:32:05.785Z,7.93
2019-03-10T10:34:43.286Z,8.75
2019-03-10T10:37:18.789Z,8.86
2019-03-10T10:39:55.867Z,9.00
2019-03-10T10:42:44.180Z,9.13
2019-03-10T10:45:20.279Z,9.15
2019-03-10T10:48:02.541Z,7.89
2019-03-10T10:50:52.927Z,9.41
2019-03-10T10:53:27.042Z,9.59
2019-03-10T10:56:12.719Z,9.67
2019-03-10T10:58:49.440Z,9.47
2019-03-10T11:01:32.092Z,9.53
2019-03-10T11:04:07.022Z,9.69
2019-03-10T11:06:43.495Z,9.11
2019-03-10T11:09:25.834Z,8.73
2019-03-10T11:11:59.924Z,9.89
2019-03-10T11:14:34.001Z,10.03
2019-03-10T11:17:13.180Z,9.97
2019-03-10T11:19:47.580Z,9.85
2019-03-10T11:22:21.778Z,9.70
2019-03-10T11:24:55.287Z,9.50
2019-03-10T11:27:37.659Z,9.60
2019-03-10T11:30:19.603Z,9.61
2019-03-10T11:33:27.767Z,9.59
2019-03-10T11:36:04.079Z,9.58
2019-03-10T11:40:43.153Z,9.61
2019-03-10T11:43:23.414Z,9.76
2019-03-10T11:46:01.385Z,9.88
2019-03-10T11:50:42.086Z,10.03
2019-03-10T11:53:19.693Z,10.30
2019-03-10T11:55:56.202Z,10.50
2019-03-10T11:58:39.643Z,10.81
2019-03-10T12:02:21.134Z,11.32
2019-03-10T12:04:57.505Z,11.41
2019-03-10T12:07:46.903Z,11.78
2019-03-10T12:10:16.808Z,11.81
2019-03-10T12:12:46.655Z,11.91
2019-03-10T12:15:16.002Z,11.95
2019-03-10T12:17:45.824Z,11.86
2019-03-10T12:20:15.540Z,11.33
2019-03-10T12:22:44.671Z,11.87
2019-03-10T12:25:14.712Z,11.85
2019-03-10T12:27:43.933Z,11.83
2019-03-10T12:30:13.437Z,11.33
2019-03-10T12:32:43.130Z,11.82
2019-03-10T12:35:12.367Z,11.74
2019-03-10T12:37:42.355Z,11.65
2019-03-10T12:40:11.880Z,11.47
2019-03-10T12:42:41.778Z,11.17
2019-03-10T12:45:11.003Z,11.46
2019-03-10T12:47:40.965Z,11.46
2019-03-10T12:50:10.234Z,11.50
2019-03-10T12:52:39.326Z,11.56
2019-03-10T12:55:09.320Z,11.59
2019-03-10T12:57:38.583Z,11.59
2019-03-10T13:00:09.304Z,11.54
2019-03-10T13:02:38.771Z,11.36
2019-03-10T13:07:28.281Z,11.31
2019-03-10T13:09:57.758Z,11.27
2019-03-10T13:12:27.701Z,11.29
2019-03-10T13:14:59.955Z,11.42
2019-03-10T13:17:26.370Z,11.52
2019-03-10T13:19:55.519Z,11.58
2019-03-10T13:22:24.694Z,11.60
2019-03-10T13:24:54.299Z,11.59
2019-03-10T13:27:25.350Z,11.48
2019-03-10T13:29:54.493Z,11.34
2019-03-10T13:32:23.909Z,11.20
2019-03-10T13:34:53.023Z,10.83
2019-03-10T13:37:22.153Z,10.94
2019-03-10T13:39:52.159Z,10.81
2019-03-10T13:42:23.010Z,10.65
2019-03-10T13:44:52.227Z,10.47
2019-03-10T13:47:21.634Z,10.28
2019-03-10T13:49:51.527Z,10.40
2019-03-10T13:52:20.699Z,10.41
2019-03-10T13:54:50.327Z,9.51
2019-03-10T13:57:19.530Z,10.52
2019-03-10T13:59:48.597Z,10.51
2019-03-10T14:02:18.129Z,10.49
2019-03-10T14:04:48.157Z,9.99
2019-03-10T14:07:17.978Z,10.51
2019-03-10T14:09:47.493Z,10.56
2019-03-10T14:12:16.602Z,10.59
2019-03-10T14:14:46.974Z,10.58
2019-03-10T14:17:17.229Z,10.55
2019-03-10T14:19:46.361Z,10.59
2019-03-10T14:22:15.642Z,10.71
2019-03-10T14:24:45.097Z,10.78
2019-03-10T14:27:14.366Z,10.84
2019-03-10T14:29:43.510Z,10.51
2019-03-10T14:32:13.158Z,10.90
2019-03-10T14:34:42.878Z,10.92
2019-03-10T14:37:12.118Z,10.96
2019-03-10T14:39:41.582Z,10.99
2019-03-10T14:42:10.722Z,11.00
2019-03-10T14:44:40.045Z,11.08
2019-03-10T14:47:09.425Z,11.16
2019-03-10T14:49:38.982Z,11.23
2019-03-10T14:52:08.207Z,11.24
2019-03-10T14:54:37.693Z,11.27
2019-03-10T14:57:07.030Z,11.28
2019-03-10T14:59:36.168Z,10.92
2019-03-10T15:02:06.691Z,11.32
2019-03-10T15:04:35.806Z,11.33
2019-03-10T15:07:05.127Z,11.30
2019-03-10T15:09:34.652Z,11.29
2019-03-10T15:12:03.928Z,11.30
2019-03-10T15:14:33.196Z,11.30
2019-03-10T15:17:02.623Z,11.16
2019-03-10T15:19:31.782Z,11.28
2019-03-10T15:22:01.687Z,11.26
2019-03-10T15:24:31.167Z,11.24
2019-03-10T15:27:00.287Z,11.19
2019-03-10T15:29:29.519Z,11.14
2019-03-10T15:31:59.022Z,11.06
2019-03-10T15:34:28.127Z,10.80
2019-03-10T15:36:57.302Z,10.53
2019-03-10T15:39:27.360Z,10.63
2019-03-10T15:41:56.874Z,10.71
2019-03-10T15:44:26.172Z,10.70
2019-03-10T15:46:56.062Z,10.69
2019-03-10T15:49:25.303Z,10.69
2019-03-10T15:51:55.442Z,10.60
2019-03-10T15:54:25.121Z,10.37
2019-03-10T15:56:55.292Z,10.58
2019-03-10T15:59:24.571Z,10.45
2019-03-10T16:01:55.562Z,10.64
2019-03-10T16:04:24.867Z,10.26
2019-03-10T16:06:54.238Z,10.65
2019-03-10T16:10:47.866Z,10.65
2019-03-10T16:13:17.351Z,10.45
2019-03-10T16:15:46.778Z,10.70
2019-03-10T16:18:20.351Z,10.62
2019-03-10T16:20:49.942Z,10.83
2019-03-10T16:23:19.655Z,10.68
2019-03-10T16:25:48.848Z,10.92
2019-03-10T16:28:18.785Z,10.20
2019-03-10T16:30:47.952Z,10.97
2019-03-10T16:33:17.039Z,10.95
2019-03-10T16:35:46.588Z,10.97
2019-03-10T16:38:15.713Z,10.83
2019-03-10T16:40:44.882Z,10.87
2019-03-10T16:43:14.742Z,10.69
2019-03-10T16:45:44.515Z,10.82
2019-03-10T16:48:13.757Z,10.72
2019-03-10T16:50:43.586Z,10.81
2019-03-10T16:53:12.805Z,10.76
2019-03-10T16:55:42.209Z,10.71
2019-03-10T16:58:11.816Z,10.62
2019-03-10T17:00:41.257Z,10.50
2019-03-10T17:03:10.389Z,10.48
2019-03-10T17:05:40.042Z,10.44
2019-03-10T17:08:09.290Z,10.30
2019-03-10T17:10:38.474Z,10.36
2019-03-10T17:13:08.458Z,10.32
2019-03-10T17:15:38.162Z,10.29
2019-03-10T17:18:07.542Z,10.24
2019-03-10T17:20:36.993Z,10.07
2019-03-10T17:23:06.246Z,10.12
2019-03-10T17:25:36.020Z,10.09
2019-03-10T17:28:05.794Z,10.04
2019-03-10T17:30:35.924Z,10.04
2019-03-10T17:33:05.353Z,10.01
2019-03-10T17:35:34.826Z,9.50
2019-03-10T17:38:04.158Z,9.93
2019-03-10T17:40:33.580Z,9.67
2019-03-10T17:43:03.114Z,9.88
2019-03-10T17:45:32.391Z,9.86
2019-03-10T17:48:01.627Z,9.88
2019-03-10T17:50:31.220Z,9.85
2019-03-10T17:53:00.426Z,9.92
2019-03-10T17:55:29.826Z,9.89
2019-03-10T17:57:59.636Z,9.77
2019-03-10T18:00:30.030Z,9.84
2019-03-10T18:02:59.223Z,9.56
2019-03-10T18:05:30.333Z,9.76
2019-03-10T18:08:00.209Z,9.71
2019-03-10T18:10:29.474Z,9.67
2019-03-10T18:12:58.786Z,9.63
2019-03-10T18:15:28.809Z,9.60
2019-03-10T18:17:58.826Z,9.55
2019-03-10T18:20:27.988Z,9.51
2019-03-10T18:22:58.877Z,9.34
2019-03-10T18:25:33.038Z,9.42
2019-03-10T18:28:02.399Z,9.09
2019-03-10T18:30:31.860Z,9.32
2019-03-10T18:33:01.007Z,9.29
2019-03-10T18:35:30.449Z,9.24
2019-03-10T18:38:00.275Z,9.23
2019-03-10T18:40:29.494Z,9.09
2019-03-10T18:42:59.290Z,9.18
2019-03-10T18:45:29.153Z,9.14
2019-03-10T18:47:58.327Z,9.14
2019-03-10T18:50:27.823Z,9.10
2019-03-10T18:52:57.313Z,9.00
2019-03-10T18:55:26.487Z,8.36
2019-03-10T18:57:55.810Z,8.84
2019-03-10T19:00:26.307Z,9.10
2019-03-10T19:02:55.630Z,9.04
2019-03-10T19:05:24.758Z,8.97
2019-03-10T19:07:54.341Z,8.92
2019-03-10T19:10:24.140Z,8.88
2019-03-10T19:12:53.455Z,8.71
2019-03-10T19:15:23.203Z,8.80
2019-03-10T19:17:53.294Z,8.76
2019-03-10T19:20:22.610Z,8.56
2019-03-10T19:22:52.419Z,8.62
2019-03-10T19:25:21.881Z,8.52
2019-03-10T19:27:51.266Z,8.37
2019-03-10T19:30:21.228Z,8.08
2019-03-10T19:32:50.598Z,7.61
2019-03-10T19:35:23.140Z,7.31
2019-03-10T19:37:53.286Z,7.43
2019-03-10T19:40:22.563Z,7.18
2019-03-10T19:42:52.392Z,6.97
2019-03-10T19:45:22.125Z,6.82
2019-03-10T19:47:51.819Z,6.58
2019-03-10T19:50:21.202Z,6.56
2019-03-10T19:52:51.617Z,6.39
2019-03-10T19:55:21.110Z,6.26
2019-03-10T19:57:54.800Z,6.17
2019-03-10T20:00:24.802Z,6.07
2019-03-10T20:02:53.982Z,6.00
2019-03-10T20:05:23.258Z,5.81
2019-03-10T20:07:52.869Z,5.85
2019-03-10T20:10:22.278Z,5.77
2019-03-10T20:12:51.493Z,5.63
2019-03-10T20:15:21.031Z,5.56
2019-03-10T20:17:50.982Z,5.54
2019-03-10T20:20:20.814Z,5.47
2019-03-10T20:22:51.085Z,5.41
2019-03-10T20:25:20.496Z,5.27
2019-03-10T20:27:49.965Z,5.18
2019-03-10T20:30:19.734Z,5.14
2019-03-10T20:32:49.120Z,5.13
2019-03-10T20:35:18.423Z,5.07
2019-03-10T20:37:49.253Z,4.07
2019-03-10T20:40:19.037Z,4.99
2019-03-10T20:42:48.410Z,4.97
2019-03-10T20:45:17.987Z,4.89
2019-03-10T20:47:47.395Z,4.83
2019-03-10T20:50:16.684Z,4.78
2019-03-10T20:52:46.247Z,4.75
2019-03-10T20:55:15.608Z,4.74
2019-03-10T20:57:44.846Z,4.74
2019-03-10T21:00:16.150Z,4.73
2019-03-10T21:02:45.552Z,4.50
2019-03-10T21:05:14.835Z,4.76
2019-03-10T21:07:44.434Z,4.76
2019-03-10T21:10:14.933Z,4.75
2019-03-10T21:12:44.217Z,4.75
2019-03-10T21:15:15.543Z,4.79
2019-03-10T21:17:46.011Z,4.77
2019-03-10T21:20:16.692Z,4.76
2019-03-10T21:22:46.185Z,4.78
2019-03-10T21:25:18.103Z,4.69
2019-03-10T21:27:47.434Z,4.78
2019-03-10T21:30:19.509Z,4.54
2019-03-10T21:32:48.775Z,4.76
2019-03-10T21:35:18.406Z,4.70
2019-03-10T21:37:48.080Z,4.64
2019-03-10T21:40:19.338Z,4.60
2019-03-10T21:42:49.517Z,4.56
2019-03-10T21:45:19.442Z,4.54
2019-03-10T21:47:48.775Z,4.52
2019-03-10T21:50:18.763Z,4.51
2019-03-10T21:52:48.309Z,4.50
2019-03-10T21:55:17.965Z,4.49
2019-03-10T21:57:47.048Z,4.49
2019-03-10T22:00:17.722Z,4.47
2019-03-10T22:02:46.930Z,4.48
2019-03-10T22:05:16.155Z,4.35
2019-03-10T22:07:46.689Z,4.32
2019-03-10T22:10:26.321Z,4.41
2019-03-10T22:12:46.613Z,4.40
2019-03-10T22:15:16.207Z,4.38
2019-03-10T22:17:46.025Z,3.47
2019-03-10T22:20:15.250Z,4.29
2019-03-10T22:22:49.253Z,4.02
2019-03-10T22:25:16.986Z,4.22
2019-03-10T22:27:46.574Z,4.22
2019-03-10T22:35:41.225Z,4.20
2019-03-10T22:38:10.798Z,4.20
2019-03-10T22:40:41.551Z,4.21
2019-03-10T22:43:10.658Z,4.23
2019-03-10T22:45:41.459Z,4.10
2019-03-10T22:48:10.672Z,4.24
2019-03-10T22:50:40.305Z,4.21
2019-03-10T22:53:10.538Z,4.04
2019-03-10T22:55:39.803Z,4.12
2019-03-10T22:58:09.441Z,4.09
2019-03-10T23:00:45.428Z,4.00
2019-03-10T23:03:15.628Z,3.90
2019-03-10T23:05:45.450Z,4.00
2019-03-10T23:08:14.603Z,3.99
2019-03-10T23:10:45.010Z,3.86
2019-03-10T23:13:15.022Z,3.96
2019-03-10T23:15:44.582Z,3.97
2019-03-10T23:18:13.959Z,3.95
2019-03-10T23:20:43.454Z,3.95
2019-03-10T23:23:12.723Z,3.98
2019-03-10T23:25:41.857Z,4.02
2019-03-10T23:28:11.946Z,4.01
2019-03-10T23:30:41.924Z,4.00
2019-03-10T23:33:12.001Z,3.97
2019-03-10T23:35:41.459Z,3.85
2019-03-10T23:38:11.497Z,3.98
2019-03-10T23:40:41.227Z,4.01
2019-03-10T23:43:11.342Z,4.04
2019-03-10T23:45:41.081Z,4.04
2019-03-10T23:48:10.986Z,4.03
2019-03-10T23:50:40.917Z,4.03
2019-03-10T23:53:11.630Z,4.02
2019-03-10T23:55:41.314Z,3.95
2019-03-10T23:58:10.782Z,4.10
